Time;durP1;ratioP1;P1;durP2;ratioP2;P2;SDS_P1;SDS_P2;PMS_P1;PMS_P2;Temp;Humidity;BMP_temperature;BMP_pressure;BME280_temperature;BME280_humidity;BME280_pressure;Samples;Min_cycle;Max_cycle;Signal;HPM_P1;HPM_P2
2022/06/20 00:00:53;;;;;;;0.17;0.15;;;20.80;53.60;;;;;;5070398;28;20032;-73
2022/06/20 00:03:29;;;;;;;0.00;0.00;;;20.90;52.30;;;;;;5071616;28;20073;-72
2022/06/20 00:05:56;;;;;;;0.00;0.00;;;21.00;52.50;;;;;;5061064;28;20111;-72
2022/06/20 00:08:22;;;;;;;0.00;0.00;;;21.30;52.80;;;;;;5050546;28;20464;-72
2022/06/20 00:10:49;;;;;;;0.00;0.00;;;21.60;51.60;;;;;;5066020;28;20360;-73
2022/06/20 00:13:37;;;;;;;0.00;0.00;;;21.80;52.10;;;;;;5071100;28;20028;-72
2022/06/20 00:16:03;;;;;;;0.20;0.20;;;22.30;51.10;;;;;;5071424;28;20017;-72
2022/06/20 00:18:30;;;;;;;0.00;0.00;;;22.90;50.00;;;;;;5078989;28;20036;-72
2022/06/20 00:20:57;;;;;;;0.00;0.00;;;23.70;49.50;;;;;;5090029;28;20025;-73
2022/06/20 00:23:23;;;;;;;0.00;0.00;;;24.20;48.50;;;;;;5080652;28;20442;-72
2022/06/20 00:25:49;;;;;;;0.55;0.55;;;24.90;47.20;;;;;;5080183;28;20475;-72
2022/06/20 00:28:16;;;;;;;0.00;0.00;;;25.80;44.80;;;;;;5078510;28;20028;-72
2022/06/20 00:30:42;;;;;;;0.00;0.00;;;26.30;45.10;;;;;;5078737;28;20028;-72
2022/06/20 00:33:10;;;;;;;0.00;0.00;;;26.70;44.90;;;;;;5078268;28;20020;-72
2022/06/20 00:35:37;;;;;;;0.00;0.00;;;27.30;43.60;;;;;;5077603;28;20427;-72
2022/06/20 00:38:05;;;;;;;0.00;0.00;;;27.20;42.80;;;;;;5078258;28;20048;-73
2022/06/20 00:40:42;;;;;;;1.08;1.08;;;27.20;43.20;;;;;;5077981;28;20027;-72
2022/06/20 00:43:13;;;;;;;0.40;0.40;;;27.10;44.30;;;;;;5078529;28;20130;-72
2022/06/20 00:45:46;;;;;;;0.60;0.60;;;27.10;44.50;;;;;;5077854;28;20050;-73
2022/06/20 00:48:30;;;;;;;0.00;0.00;;;27.30;44.20;;;;;;5078448;28;20458;-72
2022/06/20 00:51:04;;;;;;;0.00;0.00;;;27.20;43.80;;;;;;5059955;28;20182;-72
2022/06/20 00:53:47;;;;;;;0.22;0.22;;;27.40;44.00;;;;;;5077636;28;20107;-72
2022/06/20 00:56:30;;;;;;;0.00;0.00;;;26.20;44.50;;;;;;5058168;28;20391;-73
2022/06/20 00:59:07;;;;;;;0.00;0.00;;;26.90;43.00;;;;;;5059232;28;20490;-72
2022/06/20 01:01:37;;;;;;;0.00;0.00;;;27.60;44.10;;;;;;5077360;28;20024;-72
2022/06/20 01:04:33;;;;;;;2.72;1.55;;;26.80;43.20;;;;;;5069410;28;20374;-72
2022/06/20 01:07:02;;;;;;;0.00;0.00;;;25.70;44.50;;;;;;5072632;28;20143;-72
2022/06/20 01:09:33;;;;;;;0.00;0.00;;;26.30;46.10;;;;;;5075182;28;20148;-73
2022/06/20 01:12:03;;;;;;;0.00;0.00;;;27.30;43.70;;;;;;5075391;28;20025;-73
2022/06/20 01:14:40;;;;;;;1.15;1.05;;;28.20;43.00;;;;;;5077897;28;20377;-72
2022/06/20 01:17:30;;;;;;;34.33;25.52;;;29.40;41.20;;;;;;5078036;28;20073;-72
2022/06/20 01:19:59;;;;;;;6.43;1.10;;;29.10;41.00;;;;;;5077786;28;20052;-72
2022/06/20 01:22:43;;;;;;;0.00;0.00;;;28.30;44.40;;;;;;5077866;28;20031;-72
2022/06/20 01:25:33;;;;;;;0.00;0.00;;;27.10;46.10;;;;;;5076903;28;20520;-72
2022/06/20 01:28:00;;;;;;;0.00;0.00;;;28.00;43.60;;;;;;5074563;28;20032;-72
2022/06/20 01:30:32;;;;;;;0.00;0.00;;;29.20;41.40;;;;;;5072804;28;20479;-73
2022/06/20 01:32:59;;;;;;;0.10;0.10;;;29.80;41.30;;;;;;5073521;28;20028;-72
2022/06/20 01:38:14;;;;;;;0.00;0.00;;;31.00;36.80;;;;;;5071216;28;20394;-71
2022/06/20 01:42:18;;;;;;;0.00;0.00;;;31.70;35.40;;;;;;5073793;28;20102;-72
2022/06/20 01:43:32;;;;;;;0.00;0.00;;;31.50;35.40;;;;;;5072788;28;20474;-73
2022/06/20 01:45:59;;;;;;;0.00;0.00;;;31.30;35.30;;;;;;5070984;28;20048;-73
2022/06/20 01:48:29;;;;;;;0.05;0.05;;;31.30;35.40;;;;;;5067634;28;20033;-73
2022/06/20 01:50:57;;;;;;;0.00;0.00;;;31.70;35.20;;;;;;5065669;28;20028;-72
2022/06/20 01:53:29;;;;;;;0.00;0.00;;;31.80;34.20;;;;;;5071453;28;20028;-72
2022/06/20 01:55:56;;;;;;;0.03;0.03;;;32.20;34.30;;;;;;5067199;28;20039;-72
2022/06/20 01:58:31;;;;;;;0.00;0.00;;;32.50;32.90;;;;;;5070640;28;20071;-72
2022/06/20 02:00:59;;;;;;;0.00;0.00;;;32.60;32.80;;;;;;5071350;28;20033;-72
2022/06/20 02:03:25;;;;;;;0.00;0.00;;;33.00;32.30;;;;;;5063046;28;20036;-72
2022/06/20 02:05:55;;;;;;;0.00;0.00;;;33.20;32.20;;;;;;5069387;28;20040;-72
2022/06/20 02:08:23;;;;;;;0.00;0.00;;;33.60;31.80;;;;;;5078263;28;20067;-72
2022/06/20 02:11:15;;;;;;;1.52;1.50;;;34.00;31.50;;;;;;5072696;28;20028;-72
2022/06/20 02:13:46;;;;;;;0.00;0.00;;;33.80;31.80;;;;;;5037159;28;20368;-72
2022/06/20 02:16:16;;;;;;;0.00;0.00;;;34.00;32.00;;;;;;5073441;28;20016;-72
2022/06/20 02:18:46;;;;;;;0.10;0.10;;;34.10;31.70;;;;;;5080567;28;20074;-75
2022/06/20 02:21:26;;;;;;;0.40;0.35;;;33.60;31.70;;;;;;5080973;28;20029;-74
2022/06/20 02:23:59;;;;;;;0.00;0.00;;;33.70;31.90;;;;;;5078989;28;20483;-73
2022/06/20 02:26:26;;;;;;;0.15;0.15;;;33.80;31.40;;;;;;5074306;28;20039;-74
2022/06/20 02:28:57;;;;;;;0.00;0.00;;;34.30;31.20;;;;;;5054067;28;20029;-73
2022/06/20 02:31:24;;;;;;;0.00;0.00;;;34.00;30.70;;;;;;5070003;28;20028;-73
2022/06/20 02:33:53;;;;;;;3.30;0.85;;;33.10;32.50;;;;;;5064816;28;20028;-73
2022/06/20 02:36:19;;;;;;;0.45;0.30;;;33.50;32.00;;;;;;5056849;28;20049;-73
2022/06/20 02:38:46;;;;;;;0.00;0.00;;;33.70;31.40;;;;;;5063129;28;20035;-73
2022/06/20 02:41:18;;;;;;;0.00;0.00;;;32.60;32.60;;;;;;5064319;28;20105;-72
2022/06/20 02:44:00;;;;;;;0.00;0.00;;;33.10;32.20;;;;;;5058900;28;20036;-74
2022/06/20 02:46:30;;;;;;;0.22;0.22;;;33.00;32.80;;;;;;5063430;28;20071;-75
2022/06/20 02:48:59;;;;;;;1.45;1.30;;;33.20;32.60;;;;;;5068820;28;20371;-72
2022/06/20 02:51:29;;;;;;;0.00;0.00;;;33.20;32.40;;;;;;5063885;28;20419;-74
2022/06/20 02:54:01;;;;;;;0.45;0.45;;;33.30;32.40;;;;;;5046578;28;20053;-72
2022/06/20 02:56:31;;;;;;;0.08;0.05;;;33.60;32.50;;;;;;5057661;28;20479;-74
2022/06/20 02:59:05;;;;;;;0.00;0.00;;;33.80;32.20;;;;;;5064841;28;20032;-72
2022/06/20 03:01:49;;;;;;;0.00;0.00;;;33.80;32.50;;;;;;5065005;28;20029;-76
2022/06/20 03:04:16;;;;;;;1.08;0.63;;;34.40;32.20;;;;;;5060457;28;20024;-74
2022/06/20 03:06:56;;;;;;;0.00;0.00;;;34.40;32.10;;;;;;5063401;28;20029;-77
2022/06/20 03:09:30;;;;;;;0.00;0.00;;;34.70;31.80;;;;;;5061824;28;20016;-74
2022/06/20 03:11:57;;;;;;;0.00;0.00;;;35.10;31.70;;;;;;5056927;28;20090;-74
2022/06/20 03:14:46;;;;;;;0.00;0.00;;;35.20;31.60;;;;;;5064689;28;20039;-73
2022/06/20 03:17:15;;;;;;;0.10;0.10;;;35.20;32.20;;;;;;5064673;28;20013;-73
2022/06/20 03:19:46;;;;;;;0.00;0.00;;;34.40;31.60;;;;;;5066372;28;20016;-73
2022/06/20 03:22:17;;;;;;;0.00;0.00;;;33.30;32.70;;;;;;5064613;28;20032;-75
2022/06/20 03:24:44;;;;;;;5.65;4.20;;;33.80;32.50;;;;;;5072623;28;20021;-73
2022/06/20 03:27:12;;;;;;;0.00;0.00;;;34.30;31.90;;;;;;5065635;28;20474;-74
2022/06/20 03:29:40;;;;;;;1.65;1.55;;;34.50;31.80;;;;;;5069699;28;20036;-74
2022/06/20 03:32:07;;;;;;;0.05;0.05;;;34.90;31.20;;;;;;5064413;28;21607;-74
2022/06/20 03:34:33;;;;;;;0.00;0.00;;;34.70;31.50;;;;;;5064970;28;20409;-73
2022/06/20 03:37:02;;;;;;;4.85;0.80;;;34.90;31.20;;;;;;5064259;28;20071;-73
2022/06/20 03:39:29;;;;;;;2.28;2.17;;;34.70;31.40;;;;;;5067907;28;20152;-77
2022/06/20 03:41:56;;;;;;;0.00;0.00;;;34.50;31.20;;;;;;5066126;28;20135;-73
2022/06/20 03:44:36;;;;;;;0.00;0.00;;;34.20;31.80;;;;;;5069972;28;20040;-72
2022/06/20 03:47:14;;;;;;;0.20;0.20;;;35.00;31.00;;;;;;5068226;28;20028;-73
2022/06/20 03:49:53;;;;;;;0.00;0.00;;;35.40;30.40;;;;;;5067723;28;20048;-74
2022/06/20 03:52:27;;;;;;;0.00;0.00;;;34.80;32.40;;;;;;5066515;28;20036;-74
2022/06/20 03:55:02;;;;;;;0.00;0.00;;;35.00;31.80;;;;;;5064876;28;20021;-74
2022/06/20 03:57:52;;;;;;;0.00;0.00;;;35.20;31.00;;;;;;5066663;28;20334;-73
2022/06/20 04:00:37;;;;;;;0.05;0.05;;;34.00;31.90;;;;;;5066798;28;20547;-76
2022/06/20 04:03:30;;;;;;;0.15;0.15;;;33.90;32.20;;;;;;5049267;28;20040;-75
2022/06/20 04:06:09;;;;;;;0.55;0.20;;;33.70;32.70;;;;;;5060352;28;20028;-72
2022/06/20 04:11:36;;;;;;;0.00;0.00;;;30.20;37.20;;;;;;5067090;28;20429;-73
2022/06/20 04:14:16;;;;;;;0.00;0.00;;;30.30;37.20;;;;;;5047489;28;20499;-73
2022/06/20 04:18:26;;;;;;;0.00;0.00;;;30.50;36.60;;;;;;5066853;28;20024;-73
2022/06/20 04:19:55;;;;;;;0.00;0.00;;;29.80;37.00;;;;;;5072214;28;20505;-73
2022/06/20 04:22:27;;;;;;;1.80;1.25;;;29.00;39.20;;;;;;5065142;28;20032;-73
2022/06/20 04:25:04;;;;;;;0.00;0.00;;;28.90;39.50;;;;;;5064029;28;20093;-73
2022/06/20 04:27:56;;;;;;;3.05;0.40;;;28.90;40.00;;;;;;5060126;28;22000;-74
2022/06/20 04:30:34;;;;;;;0.32;0.32;;;28.80;39.10;;;;;;5058244;28;20417;-73
2022/06/20 04:33:14;;;;;;;0.00;0.00;;;28.70;39.80;;;;;;5060925;28;20046;-73
2022/06/20 04:35:47;;;;;;;38.90;5.93;;;28.80;40.10;;;;;;5059044;28;20021;-73
2022/06/20 04:38:24;;;;;;;0.00;0.00;;;28.90;39.90;;;;;;5059144;28;20128;-73
2022/06/20 04:41:00;;;;;;;1.92;1.83;;;28.30;40.90;;;;;;5063469;28;20541;-73
2022/06/20 04:44:01;;;;;;;0.10;0.10;;;28.30;41.60;;;;;;5065517;28;20112;-73
2022/06/20 04:46:38;;;;;;;0.00;0.00;;;28.50;41.90;;;;;;5015449;28;20067;-74
2022/06/20 04:49:04;;;;;;;0.00;0.00;;;28.40;41.90;;;;;;5064065;28;20662;-74
2022/06/20 04:51:35;;;;;;;0.00;0.00;;;28.70;41.40;;;;;;5061611;28;20037;-74
2022/06/20 04:54:01;;;;;;;0.00;0.00;;;28.80;40.40;;;;;;5062267;28;20667;-74
2022/06/20 04:56:28;;;;;;;2.17;0.38;;;28.90;40.10;;;;;;5064027;28;20413;-74
2022/06/20 04:59:00;;;;;;;0.00;0.00;;;28.40;41.50;;;;;;5062502;28;20025;-73
2022/06/20 05:01:31;;;;;;;0.00;0.00;;;28.40;41.70;;;;;;5062565;28;20106;-74
2022/06/20 05:04:13;;;;;;;0.08;0.08;;;28.40;41.40;;;;;;5060274;28;20139;-74
2022/06/20 05:06:41;;;;;;;7.22;5.78;;;28.50;41.60;;;;;;5048866;28;20020;-74
2022/06/20 05:09:16;;;;;;;0.00;0.00;;;28.10;43.20;;;;;;5069745;28;20023;-73
2022/06/20 05:11:50;;;;;;;2.85;1.35;;;28.10;43.30;;;;;;5063318;28;20372;-74
2022/06/20 05:14:22;;;;;;;0.00;0.00;;;27.90;43.30;;;;;;5052675;28;20043;-74
2022/06/20 05:16:52;;;;;;;7.30;0.20;;;27.70;42.70;;;;;;5065087;28;20074;-75
2022/06/20 05:19:41;;;;;;;0.55;0.40;;;27.80;43.10;;;;;;5068463;28;20142;-74
2022/06/20 05:22:19;;;;;;;0.00;0.00;;;27.80;42.70;;;;;;5064731;28;20035;-74
2022/06/20 05:24:47;;;;;;;0.00;0.00;;;27.90;42.20;;;;;;5056569;28;20139;-73
2022/06/20 05:27:24;;;;;;;0.00;0.00;;;28.20;42.50;;;;;;5063766;28;20111;-74
2022/06/20 05:29:52;;;;;;;1.00;0.35;;;28.30;42.30;;;;;;5058378;28;20697;-72
2022/06/20 05:32:38;;;;;;;0.10;0.10;;;28.40;41.00;;;;;;5065438;28;20692;-74
2022/06/20 05:35:21;;;;;;;20.50;10.90;;;28.10;41.60;;;;;;5062543;28;20028;-74
2022/06/20 05:38:13;;;;;;;0.00;0.00;;;27.70;42.40;;;;;;5066999;28;20150;-75
2022/06/20 05:40:55;;;;;;;0.00;0.00;;;27.90;43.50;;;;;;5062160;28;20033;-73
2022/06/20 05:43:21;;;;;;;0.45;0.45;;;28.40;42.40;;;;;;5065382;28;20044;-74
2022/06/20 05:45:58;;;;;;;0.65;0.50;;;28.60;41.90;;;;;;5060214;28;22263;-74
2022/06/20 05:48:49;;;;;;;0.00;0.00;;;28.40;40.80;;;;;;5065296;28;20044;-74
2022/06/20 05:51:18;;;;;;;0.00;0.00;;;28.20;41.60;;;;;;5054391;28;20055;-75
2022/06/20 05:53:53;;;;;;;0.52;0.43;;;28.20;42.90;;;;;;5065019;28;20621;-72
2022/06/20 05:56:26;;;;;;;0.00;0.00;;;28.10;42.70;;;;;;5067232;28;20048;-75
2022/06/20 05:58:54;;;;;;;0.17;0.17;;;28.20;43.00;;;;;;5064205;28;20056;-74
2022/06/20 06:01:31;;;;;;;0.00;0.00;;;28.20;41.10;;;;;;5065210;28;20032;-74
2022/06/20 06:04:21;;;;;;;4.18;3.83;;;28.40;40.90;;;;;;5067670;28;20389;-74
2022/06/20 06:06:54;;;;;;;0.08;0.08;;;28.00;40.70;;;;;;5063554;28;20068;-74
2022/06/20 06:09:48;;;;;;;0.43;0.30;;;28.00;38.70;;;;;;5062601;28;20058;-75
2022/06/20 06:12:23;;;;;;;0.30;0.10;;;28.20;39.10;;;;;;5025728;28;20429;-73
2022/06/20 06:15:09;;;;;;;2.70;0.50;;;28.10;40.50;;;;;;5066080;28;20347;-73
2022/06/20 06:17:48;;;;;;;0.95;0.10;;;28.30;40.20;;;;;;5068136;28;20413;-74
2022/06/20 06:20:23;;;;;;;0.10;0.10;;;28.50;40.10;;;;;;5066091;28;20033;-74
2022/06/20 06:22:54;;;;;;;0.00;0.00;;;28.40;40.10;;;;;;5065483;28;20719;-73
2022/06/20 06:25:28;;;;;;;0.00;0.00;;;28.40;39.90;;;;;;5062233;28;20032;-75
2022/06/20 06:27:59;;;;;;;0.10;0.10;;;28.90;40.50;;;;;;5064212;28;20056;-73
2022/06/20 06:30:32;;;;;;;0.73;0.20;;;28.60;39.40;;;;;;5071030;28;20392;-73
2022/06/20 06:33:06;;;;;;;1.05;0.28;;;28.70;38.50;;;;;;5067375;28;20150;-74
2022/06/20 06:35:40;;;;;;;0.20;0.20;;;28.70;38.90;;;;;;5066525;28;20058;-73
2022/06/20 06:38:10;;;;;;;0.17;0.17;;;28.70;39.60;;;;;;5059571;28;20041;-75
2022/06/20 06:40:51;;;;;;;0.80;0.30;;;28.60;39.90;;;;;;5058969;28;20039;-75
2022/06/20 06:43:17;;;;;;;0.00;0.00;;;28.40;41.80;;;;;;5066434;28;20024;-75
2022/06/20 06:45:45;;;;;;;0.10;0.10;;;28.40;41.20;;;;;;5066359;28;20074;-74
2022/06/20 06:48:31;;;;;;;0.00;0.00;;;28.50;41.10;;;;;;5062326;28;20467;-73
2022/06/20 06:51:20;;;;;;;0.00;0.00;;;28.60;40.50;;;;;;5066513;28;20048;-74
2022/06/20 06:53:56;;;;;;;0.30;0.10;;;28.60;40.80;;;;;;5065739;28;20040;-74
2022/06/20 06:56:54;;;;;;;0.30;0.30;;;29.10;39.50;;;;;;5069690;28;20070;-72
2022/06/20 06:59:28;;;;;;;0.25;0.10;;;28.70;39.50;;;;;;5037919;28;20040;-74
2022/06/20 07:01:59;;;;;;;4.25;1.55;;;28.60;39.70;;;;;;5064451;28;20404;-73
2022/06/20 07:04:57;;;;;;;0.30;0.13;;;28.70;39.30;;;;;;5063961;28;21781;-74
2022/06/20 07:07:57;;;;;;;0.00;0.00;;;28.80;39.20;;;;;;5051947;28;20036;-74
2022/06/20 07:10:47;;;;;;;0.00;0.00;;;28.90;40.00;;;;;;5062614;28;20143;-74
2022/06/20 07:13:42;;;;;;;4.57;3.10;;;29.10;39.30;;;;;;5054641;28;20427;-74
2022/06/20 07:16:36;;;;;;;0.00;0.00;;;29.40;38.50;;;;;;5020226;28;20028;-73
2022/06/20 07:19:06;;;;;;;0.00;0.00;;;29.80;38.30;;;;;;5064737;28;20078;-74
2022/06/20 07:21:33;;;;;;;0.00;0.00;;;30.00;38.90;;;;;;5061561;28;20371;-73
2022/06/20 07:24:07;;;;;;;0.00;0.00;;;29.50;38.60;;;;;;5055020;28;20044;-74
2022/06/20 07:26:47;;;;;;;0.93;0.75;;;29.20;39.40;;;;;;5061239;28;20059;-75
2022/06/20 07:29:27;;;;;;;0.00;0.00;;;29.60;39.40;;;;;;5057635;28;20036;-73
2022/06/20 07:31:59;;;;;;;6.68;6.10;;;29.80;38.20;;;;;;5062043;28;20064;-74
2022/06/20 07:34:32;;;;;;;1.55;0.45;;;30.00;37.60;;;;;;5055208;28;20066;-73
2022/06/20 07:37:02;;;;;;;0.00;0.00;;;30.00;37.20;;;;;;5064940;28;20041;-74
2022/06/20 07:39:36;;;;;;;0.47;0.35;;;29.60;37.90;;;;;;5064040;28;20028;-74
2022/06/20 07:42:18;;;;;;;0.70;0.70;;;29.80;37.60;;;;;;5058852;28;20042;-72
2022/06/20 07:44:59;;;;;;;0.85;0.35;;;29.40;37.70;;;;;;5061213;28;20032;-73
2022/06/20 07:47:33;;;;;;;0.00;0.00;;;29.80;36.30;;;;;;5060203;28;20398;-74
2022/06/20 07:50:07;;;;;;;0.10;0.10;;;30.10;36.60;;;;;;5055624;28;20751;-74
2022/06/20 07:52:42;;;;;;;4.15;0.10;;;30.40;36.20;;;;;;5043107;28;20031;-74
2022/06/20 07:55:13;;;;;;;1.08;0.35;;;30.30;37.10;;;;;;5063925;28;20020;-73
2022/06/20 07:57:51;;;;;;;0.00;0.00;;;30.20;37.20;;;;;;5068417;28;20020;-75
2022/06/20 08:00:23;;;;;;;0.00;0.00;;;30.20;37.00;;;;;;5061206;28;20118;-74
2022/06/20 08:02:58;;;;;;;0.80;0.38;;;30.40;37.10;;;;;;5064106;28;20119;-72
2022/06/20 08:05:33;;;;;;;0.17;0.17;;;30.70;35.90;;;;;;5064011;28;20077;-73
2022/06/20 08:08:22;;;;;;;2.50;2.22;;;30.80;37.10;;;;;;5055989;28;20633;-72
2022/06/20 08:11:41;;;;;;;0.00;0.00;;;30.20;36.20;;;;;;5062335;28;20371;-74
2022/06/20 08:14:50;;;;;;;0.00;0.00;;;30.40;35.90;;;;;;5047758;28;20478;-74
2022/06/20 08:17:17;;;;;;;1.17;0.47;;;30.30;37.20;;;;;;4965121;28;20089;-74
2022/06/20 08:19:44;;;;;;;4.05;3.53;;;30.60;36.80;;;;;;4962416;28;20074;-72
2022/06/20 08:22:23;;;;;;;2.97;1.92;;;30.20;37.20;;;;;;5004319;28;20033;-74
2022/06/20 08:25:27;;;;;;;0.80;0.60;;;30.10;37.20;;;;;;5058344;28;20770;-73
2022/06/20 08:27:56;;;;;;;1.30;1.20;;;30.30;36.40;;;;;;5005427;28;20459;-74
2022/06/20 08:30:30;;;;;;;0.00;0.00;;;30.50;35.60;;;;;;5057008;28;20356;-74
2022/06/20 08:33:02;;;;;;;0.15;0.15;;;30.30;36.40;;;;;;5067077;28;20028;-74
2022/06/20 08:35:35;;;;;;;0.00;0.00;;;30.20;35.50;;;;;;5064251;28;20036;-74
2022/06/20 08:38:09;;;;;;;0.00;0.00;;;30.70;36.70;;;;;;5066206;28;20033;-75
2022/06/20 08:41:00;;;;;;;0.32;0.32;;;30.60;36.60;;;;;;5064372;28;20351;-75
2022/06/20 08:43:48;;;;;;;1.45;0.68;;;30.60;35.00;;;;;;5067516;28;20115;-74
2022/06/20 08:47:02;;;;;;;0.00;0.00;;;30.80;34.80;;;;;;5044768;28;20037;-73
2022/06/20 08:49:42;;;;;;;0.00;0.00;;;31.00;34.90;;;;;;5057552;28;20044;-75
2022/06/20 08:52:27;;;;;;;1.40;1.05;;;30.90;34.60;;;;;;5065186;28;20036;-74
2022/06/20 08:55:01;;;;;;;0.00;0.00;;;31.40;34.20;;;;;;5063654;28;20024;-73
2022/06/20 08:57:43;;;;;;;0.08;0.08;;;31.20;34.20;;;;;;5061199;28;20023;-74
2022/06/20 09:00:14;;;;;;;2.17;1.35;;;31.10;34.30;;;;;;5062004;28;20452;-73
2022/06/20 09:02:56;;;;;;;0.00;0.00;;;31.00;33.90;;;;;;5063568;28;20033;-74
2022/06/20 09:05:40;;;;;;;4.63;3.70;;;31.10;33.90;;;;;;5068155;28;20030;-73
2022/06/20 09:08:46;;;;;;;0.00;0.00;;;31.40;33.60;;;;;;5070065;28;20032;-74
2022/06/20 09:11:27;;;;;;;0.00;0.00;;;31.30;34.10;;;;;;5064064;28;20322;-75
2022/06/20 09:14:27;;;;;;;0.00;0.00;;;31.50;33.10;;;;;;5056713;28;20123;-74
2022/06/20 09:16:57;;;;;;;0.00;0.00;;;32.00;32.40;;;;;;5014609;28;20078;-73
2022/06/20 09:19:47;;;;;;;0.00;0.00;;;32.10;33.20;;;;;;5062143;28;20078;-76
2022/06/20 09:22:43;;;;;;;0.20;0.20;;;32.10;33.40;;;;;;5068197;28;20109;-75
2022/06/20 09:25:21;;;;;;;0.00;0.00;;;31.50;33.30;;;;;;5062987;28;20037;-73
2022/06/20 09:28:05;;;;;;;0.55;0.55;;;31.00;35.50;;;;;;5066324;28;20032;-75
2022/06/20 09:30:41;;;;;;;0.00;0.00;;;31.00;34.10;;;;;;5070224;28;20032;-74
2022/06/20 09:33:15;;;;;;;0.00;0.00;;;30.90;35.80;;;;;;5066887;28;20060;-73
2022/06/20 09:35:53;;;;;;;1.83;1.77;;;31.00;34.70;;;;;;5066656;28;20021;-74
2022/06/20 09:38:58;;;;;;;0.00;0.00;;;30.60;34.90;;;;;;5062107;28;20055;-74
2022/06/20 09:41:43;;;;;;;2.30;2.17;;;30.30;34.50;;;;;;5065938;28;20020;-74
2022/06/20 09:44:20;;;;;;;0.10;0.08;;;29.80;35.70;;;;;;5054183;28;20032;-75
2022/06/20 09:46:55;;;;;;;0.00;0.00;;;29.90;35.50;;;;;;5060047;28;20482;-74
2022/06/20 09:49:54;;;;;;;0.10;0.10;;;30.00;35.70;;;;;;5060627;28;20032;-74
2022/06/20 09:52:34;;;;;;;0.00;0.00;;;30.00;36.10;;;;;;5067061;28;20033;-74
2022/06/20 09:55:14;;;;;;;0.00;0.00;;;29.80;36.10;;;;;;5066814;28;20028;-74
2022/06/20 09:58:03;;;;;;;0.00;0.00;;;30.30;35.30;;;;;;5065832;28;20082;-75
2022/06/20 10:00:39;;;;;;;0.00;0.00;;;30.70;37.10;;;;;;5067319;28;20025;-75
2022/06/20 10:03:23;;;;;;;0.00;0.00;;;31.20;35.10;;;;;;5065988;28;20425;-74
2022/06/20 10:06:03;;;;;;;0.00;0.00;;;31.00;35.00;;;;;;5063780;28;20028;-75
2022/06/20 10:08:39;;;;;;;0.10;0.10;;;31.30;36.20;;;;;;5061376;28;20115;-74
2022/06/20 10:11:26;;;;;;;0.22;0.22;;;31.60;34.90;;;;;;5061519;28;20067;-74
2022/06/20 10:14:19;;;;;;;0.00;0.00;;;31.70;34.50;;;;;;5058948;28;20478;-74
2022/06/20 10:17:13;;;;;;;0.08;0.08;;;32.10;33.70;;;;;;5061135;28;20028;-75
2022/06/20 10:20:16;;;;;;;0.00;0.00;;;31.70;34.80;;;;;;5039577;28;20123;-73
2022/06/20 10:23:16;;;;;;;0.00;0.00;;;31.30;35.30;;;;;;5070108;28;20068;-74
2022/06/20 10:26:04;;;;;;;0.00;0.00;;;31.20;36.70;;;;;;5035855;28;20453;-74
2022/06/20 10:28:43;;;;;;;0.00;0.00;;;31.30;36.50;;;;;;5058786;28;20055;-74
2022/06/20 10:31:12;;;;;;;0.00;0.00;;;31.70;35.10;;;;;;5061473;28;20139;-75
2022/06/20 10:33:52;;;;;;;0.00;0.00;;;32.10;34.00;;;;;;5060131;28;20032;-74
2022/06/20 10:36:36;;;;;;;0.00;0.00;;;31.90;33.60;;;;;;5059869;28;20020;-75
2022/06/20 10:39:44;;;;;;;0.00;0.00;;;31.40;35.00;;;;;;5062825;28;20033;-75
2022/06/20 10:42:33;;;;;;;0.00;0.00;;;31.40;34.70;;;;;;5062904;28;20021;-75
2022/06/20 10:45:23;;;;;;;0.00;0.00;;;31.70;36.30;;;;;;5056456;28;20036;-73
2022/06/20 10:47:49;;;;;;;0.00;0.00;;;31.40;35.70;;;;;;5063648;28;20438;-73
2022/06/20 10:50:24;;;;;;;0.00;0.00;;;31.30;36.10;;;;;;5062440;28;20114;-73
2022/06/20 10:52:59;;;;;;;1.55;1.55;;;31.40;37.60;;;;;;5066293;28;20726;-73
2022/06/20 10:55:36;;;;;;;0.00;0.00;;;31.60;37.50;;;;;;5061177;28;20547;-73
2022/06/20 10:58:24;;;;;;;0.00;0.00;;;31.80;37.60;;;;;;5063576;28;20025;-75
2022/06/20 11:00:59;;;;;;;0.57;0.57;;;31.80;37.30;;;;;;5056602;28;20024;-75
2022/06/20 11:03:43;;;;;;;0.15;0.08;;;31.90;36.60;;;;;;5060732;28;20758;-75
2022/06/20 11:06:36;;;;;;;0.00;0.00;;;31.90;36.10;;;;;;5060987;28;20059;-74
2022/06/20 11:09:31;;;;;;;0.13;0.13;;;30.90;37.00;;;;;;5061429;28;20028;-74
2022/06/20 11:12:18;;;;;;;1.25;1.25;;;31.20;38.10;;;;;;5028967;28;20028;-74
2022/06/20 11:14:54;;;;;;;0.35;0.35;;;31.10;37.90;;;;;;5063150;28;20063;-74
2022/06/20 11:17:45;;;;;;;0.00;0.00;;;31.40;36.80;;;;;;5055087;28;20024;-74
2022/06/20 11:20:32;;;;;;;0.10;0.10;;;30.80;37.40;;;;;;5056308;28;20028;-74
2022/06/20 11:23:23;;;;;;;0.00;0.00;;;31.10;37.30;;;;;;5059070;28;21449;-73
2022/06/20 11:26:12;;;;;;;0.00;0.00;;;31.20;37.00;;;;;;5064122;28;21107;-74
2022/06/20 11:28:56;;;;;;;0.00;0.00;;;31.40;37.50;;;;;;5063615;28;20032;-74
2022/06/20 11:31:42;;;;;;;0.00;0.00;;;31.30;37.40;;;;;;5054841;28;20053;-73
2022/06/20 11:34:28;;;;;;;0.00;0.00;;;31.50;37.30;;;;;;5058648;28;20032;-74
2022/06/20 11:37:26;;;;;;;0.00;0.00;;;31.60;37.40;;;;;;5054002;28;20052;-75
2022/06/20 11:40:25;;;;;;;0.00;0.00;;;31.60;37.30;;;;;;5057470;28;20528;-75
2022/06/20 11:43:28;;;;;;;0.00;0.00;;;31.30;37.80;;;;;;5051569;28;20525;-74
2022/06/20 11:46:35;;;;;;;0.00;0.00;;;31.40;36.50;;;;;;5055382;28;20028;-74
2022/06/20 11:49:01;;;;;;;0.00;0.00;;;31.50;36.30;;;;;;5059888;28;20087;-74
2022/06/20 11:52:00;;;;;;;0.00;0.00;;;31.60;36.70;;;;;;5063029;28;20363;-75
2022/06/20 11:54:52;;;;;;;0.00;0.00;;;31.50;37.00;;;;;;5058801;28;20111;-75
2022/06/20 11:57:46;;;;;;;0.00;0.00;;;31.40;38.00;;;;;;5059660;28;20029;-75
2022/06/20 12:00:21;;;;;;;0.00;0.00;;;31.20;37.40;;;;;;5061672;28;20299;-75
2022/06/20 12:03:05;;;;;;;0.00;0.00;;;31.00;38.00;;;;;;5061726;28;20036;-73
2022/06/20 12:05:34;;;;;;;0.00;0.00;;;31.20;38.00;;;;;;5058524;28;20033;-74
2022/06/20 12:08:25;;;;;;;0.38;0.38;;;31.20;38.20;;;;;;5057772;28;21368;-73
2022/06/20 12:10:56;;;;;;;0.38;0.20;;;31.40;37.50;;;;;;5046851;28;20382;-74
2022/06/20 12:13:54;;;;;;;0.00;0.00;;;31.30;37.60;;;;;;5058723;28;20029;-75
2022/06/20 12:16:39;;;;;;;0.00;0.00;;;31.20;37.60;;;;;;5043274;28;20052;-74
2022/06/20 12:24:42;;;;;;;0.30;0.10;;;31.40;37.50;;;;;;5063357;28;20035;-74
2022/06/20 12:27:16;;;;;;;0.00;0.00;;;31.50;37.60;;;;;;5067701;28;20028;-73
2022/06/20 12:29:44;;;;;;;0.28;0.28;;;31.60;36.60;;;;;;5067676;28;20106;-74
2022/06/20 12:32:26;;;;;;;0.20;0.20;;;31.50;36.90;;;;;;5066362;28;20024;-74
2022/06/20 12:35:24;;;;;;;0.00;0.00;;;31.30;37.30;;;;;;5064826;28;20047;-74
2022/06/20 12:38:18;;;;;;;0.00;0.00;;;31.30;38.00;;;;;;5069785;28;20134;-74
2022/06/20 12:41:03;;;;;;;0.77;0.77;;;31.20;38.20;;;;;;5072151;28;20028;-74
2022/06/20 12:43:47;;;;;;;0.00;0.00;;;30.80;38.90;;;;;;5072797;28;20352;-73
2022/06/20 12:46:28;;;;;;;0.00;0.00;;;30.60;39.80;;;;;;5064458;28;20037;-74
2022/06/20 12:49:05;;;;;;;0.00;0.00;;;30.70;40.50;;;;;;5067551;28;20043;-74
2022/06/20 12:51:50;;;;;;;2.30;0.63;;;30.50;40.20;;;;;;5066898;28;20544;-74
2022/06/20 12:54:37;;;;;;;0.00;0.00;;;30.50;39.80;;;;;;5069287;28;20355;-74
2022/06/20 12:57:42;;;;;;;0.00;0.00;;;30.40;39.10;;;;;;5069270;28;20070;-74
2022/06/20 13:00:14;;;;;;;0.00;0.00;;;30.20;37.70;;;;;;5067897;28;20075;-74
2022/06/20 13:03:27;;;;;;;0.00;0.00;;;30.00;37.70;;;;;;5074543;28;20028;-73
2022/06/20 13:06:19;;;;;;;0.00;0.00;;;29.90;37.60;;;;;;5070766;28;20437;-75
2022/06/20 13:09:22;;;;;;;0.00;0.00;;;29.90;37.40;;;;;;5076355;28;20024;-74
2022/06/20 13:12:11;;;;;;;0.00;0.00;;;29.80;37.10;;;;;;5069073;28;20040;-73
2022/06/20 13:15:04;;;;;;;0.22;0.22;;;29.00;40.90;;;;;;5039866;28;20043;-73
2022/06/20 13:17:42;;;;;;;0.38;0.38;;;28.40;45.90;;;;;;5078826;28;20056;-72
2022/06/20 13:20:35;;;;;;;0.00;0.00;;;27.40;48.30;;;;;;5067369;28;20516;-73
2022/06/20 13:23:20;;;;;;;3.30;0.60;;;27.10;49.30;;;;;;5064232;28;20024;-72
2022/06/20 13:26:15;;;;;;;5.68;0.65;;;26.80;50.10;;;;;;5070052;28;20401;-73
2022/06/20 13:28:55;;;;;;;12.30;4.55;;;26.40;51.00;;;;;;5062469;28;20117;-73
2022/06/20 13:31:26;;;;;;;1.08;0.98;;;26.10;52.20;;;;;;5062849;28;20374;-73
2022/06/20 13:33:59;;;;;;;0.95;0.17;;;26.00;52.80;;;;;;5070209;28;20103;-74
2022/06/20 13:36:46;;;;;;;0.00;0.00;;;25.80;53.80;;;;;;5071263;28;20040;-74
2022/06/20 13:39:47;;;;;;;0.00;0.00;;;25.60;54.30;;;;;;5076460;28;20024;-73
2022/06/20 13:42:32;;;;;;;0.00;0.00;;;25.40;55.20;;;;;;5063065;28;20025;-73
2022/06/20 13:45:24;;;;;;;0.30;0.30;;;25.50;54.60;;;;;;5061083;28;20021;-73
2022/06/20 13:47:50;;;;;;;0.00;0.00;;;25.40;54.90;;;;;;5066430;28;20517;-74
2022/06/20 13:50:22;;;;;;;3.10;2.35;;;25.30;55.10;;;;;;5067621;28;20102;-73
2022/06/20 13:52:58;;;;;;;0.00;0.00;;;25.30;55.20;;;;;;5068685;28;20029;-73
2022/06/20 13:55:52;;;;;;;20.88;4.30;;;25.30;55.30;;;;;;5077043;28;20035;-73
2022/06/20 13:58:20;;;;;;;0.38;0.38;;;25.20;55.30;;;;;;5043636;28;20374;-73